Townsend, GA (31331)

9:02 PM EDT on October 22, 2014 (GMT -0400)
RAWS MIDWAY GA US | Change Station
CLOSE
Current Station
Personal Weather Station
Location: Midway, GA
Elevation: 15 ft
Nearby Weather Stations

Elev 15 ft 31.78 °N, 81.44 °W | Updated 58 minutes ago

Clear
Clear
54 °F
Feels Like 54 °F
N
0
Wind Variable Wind from North
Gusts 0.0 mph

Today
High -- | Low -- °F
--% Chance of Precip.
Yesterday
High -- | Low -- °F
Precip. -- in
7:33 AM 6:46 PM
Waning Crescent, 1% visible
Pressure 30.06 in
Visibility 10.0 miles
Clouds Clear
Dew Point 51 °F
Humidity 89%
Rainfall 0.00 in
Snow Depth Not available.
UV 0 out of 12
Pollen 4.60 out of 12
Air Quality Not available.
Flu Activity Sporadic
METAR KBQK 230055Z AUTO 00000KT 10SM CLR 12/09 A3006 RMK AO1

More Conditions Fewer Conditions

Pressure 30.06 in
Visibility 10.0 miles
Clouds Clear
Dew Point 51 °F
Humidity 89%
Rainfall 0.00 in
Snow Depth Not available.
UV 0 out of 12
Pollen 4.60 out of 12
Air Quality Not available.
Flu Activity Sporadic
METAR KBQK 230055Z AUTO 00000KT 10SM CLR 12/09 A3006 RMK AO1

More Conditions Fewer Conditions

10-Day Weather Forecast

Almanac

Astronomy

Oct. 22, 2014 Rise Set
Actual Time 7:33 AM EDT 6:46 PM EDT
Civil Twilight 7:09 AM EDT 7:10 PM EDT
Nautical Twilight 6:40 AM EDT 7:39 PM EDT
Astronomical Twilight 6:12 AM EDT 8:07 PM EDT
Moon 6:18 AM EDT (10/22) 6:08 PM EDT (10/22)
Length of Visible Light 12h 01m
Length of Day
11h 12m
Tomorrow will be 1m 47s shorter.
Waning Crescent, 1% of the Moon is Illuminated
Today
Waning Crescent
Oct 23
New
Oct 30
First Quarter
Nov 6
Full
Nov 14
Last Quarter

Today's Extremes

State Highs State Lows

Community

WunderPhotos

Upload Photos

1,764,100 photos uploaded!

WunderBlogs® & News

Nearby

Snow Depth

Station Depth Elevation
No new snow has been reported.

Earthquake Activity

City Distance Mag. Time & Date
No recent earthquake activity has been reported nearby.
Minimum magnitude displayed is 2.5.

Coastal Water Temperatures

Place Temperature
No Stations Reporting

Nearby Weather Stations